Список аэропортов
Фактическая погода:

24 мая, 16:00
Температура: +16°C (+16.0*)
Ветер: западный 2 м/с
Давление: *764 мм
неб. облачность
кучевые 660 м
разорв. обл.
2700 м
Время (МСК)Темп. СВетерВлажностьДавлениеОблачностьОсадки
15:00+16ЮЗ, 3 м/с71%1019 гПаоблачносл. дождь
16:00+15ЮЗ, 2 м/с72%1019 гПаоблачносл. дождь
17:00+15ЮЗ, 2 м/с74%1019 гПаоблачносл. дождь
18:00+15ЮЗ, 2 м/с76%1019 гПаоблачносл. дождь
19:00+14ЮЗ, 1 м/с78%1019 гПаоблачно
20:00+14Штиль 83%1019 гПаоблачно
21:00+14Ю, 1 м/с86%1019 гПаоблачно
22:00+13Ю, 1 м/с87%1019 гПаоблачно
23:00+13ЮВ, 1 м/с89%1019 гПаоблачно
25 мая
00:00+12ЮВ, 1 м/с92%1019 гПаоблачно
01:00+12В, 1 м/с93%1019 гПаоблачно
02:00+12В, 1 м/с93%1019 гПаоблачно
03:00+12СВ, 1 м/с93%1018 гПаоблачно
04:00+12СВ, 1 м/с91%1018 гПаоблачно
05:00+12СВ, 1 м/с90%1018 гПаоблачносл. дождь
06:00+13СВ, 2 м/с88%1018 гПаоблачносл. дождь
07:00+14С, 1 м/с82%1018 гПаоблачно
08:00+15З, 1 м/с71%1018 гПаоблачно
09:00+16ЮЗ, 1 м/с63%1018 гПаоблачно
10:00+18ЮЗ, 2 м/с59%1017 гПамалооблачно
11:00+18ЮЗ, 3 м/с62%1017 гПамалооблачно
12:00+18ЮЗ, 3 м/с64%1017 гПамалооблачно
13:00+18ЮЗ, 3 м/с63%1017 гПас прояснениями
14:00+18З, 3 м/с62%1017 гПаоблачно
15:00+18З, 3 м/с59%1017 гПаоблачно
16:00+18З, 3 м/с54%1016 гПамалооблачно
17:00+18З, 3 м/с52%1016 гПас прояснениями
18:00+18СЗ, 3 м/с51%1016 гПас прояснениями
19:00+17СЗ, 3 м/с53%1016 гПаясно
20:00+16СЗ, 2 м/с61%1016 гПаясно
21:00+15С, 1 м/с73%1017 гПаясно
22:00+13СЗ, 1 м/с85%1017 гПаясно
23:00+13С, 1 м/с88%1017 гПаясно
26 мая
00:00+12СВ, 2 м/с87%1017 гПаясно
01:00+12СВ, 2 м/с84%1017 гПаясно
02:00+12СВ, 2 м/с78%1016 гПаясно
03:00+12СВ, 2 м/с73%1016 гПаясно
04:00+12СВ, 3 м/с69%1016 гПаясно
05:00+12СВ, 3 м/с67%1016 гПаясно
06:00+13СВ, 3 м/с63%1016 гПаясно
07:00+15СВ, 2 м/с54%1015 гПаясно
08:00+18Штиль 45%1014 гПаясно
09:00+20ЮЗ, 2 м/с42%1014 гПаясно
10:00+20ЮЗ, 2 м/с43%1014 гПаясно
11:00+21З, 2 м/с41%1014 гПаясно
12:00+22З, 2 м/с38%1013 гПаясно
13:00+22З, 3 м/с38%1013 гПаясно
14:00+22З, 3 м/с36%1013 гПас прояснениями
15:00+22СЗ, 4 м/с33%1012 гПаоблачно